createdAt,value
2023-02-06T00:00:53.651Z,31.87
2023-02-06T00:03:20.744Z,32.72
2023-02-06T00:05:55.586Z,23.77
2023-02-06T00:08:22.500Z,29.12
2023-02-06T00:10:49.436Z,24.27
2023-02-06T00:13:16.648Z,22.87
2023-02-06T00:15:44.270Z,24.73
2023-02-06T00:18:11.624Z,24.50
2023-02-06T00:20:38.789Z,19.62
2023-02-06T00:23:05.706Z,23.60
2023-02-06T00:25:32.921Z,25.85
2023-02-06T00:27:59.926Z,18.75
2023-02-06T00:30:27.181Z,20.60
2023-02-06T00:32:54.102Z,16.12
2023-02-06T00:35:21.107Z,26.80
2023-02-06T00:37:48.220Z,25.88
2023-02-06T00:40:15.155Z,25.83
2023-02-06T00:42:42.108Z,28.48
2023-02-06T00:45:10.421Z,32.00
2023-02-06T00:47:37.383Z,26.47
2023-02-06T00:50:05.975Z,26.25
2023-02-06T00:52:33.023Z,21.35
2023-02-06T00:54:59.979Z,20.58
2023-02-06T00:57:26.928Z,18.97
2023-02-06T00:59:54.433Z,21.60
2023-02-06T01:02:21.509Z,21.12
2023-02-06T01:04:48.695Z,18.52
2023-02-06T01:07:15.661Z,15.32
2023-02-06T01:09:42.518Z,18.43
2023-02-06T01:12:09.760Z,19.87
2023-02-06T01:14:36.641Z,18.25
2023-02-06T01:17:03.912Z,13.75
2023-02-06T01:19:30.929Z,17.90
2023-02-06T01:21:57.971Z,16.50
2023-02-06T01:24:24.928Z,16.55
2023-02-06T01:26:51.762Z,18.50
2023-02-06T01:29:18.604Z,17.00
2023-02-06T01:31:45.901Z,21.90
2023-02-06T01:34:12.964Z,16.87
2023-02-06T01:36:39.894Z,15.68
2023-02-06T01:39:07.426Z,17.08
2023-02-06T01:41:34.944Z,14.77
2023-02-06T01:44:13.978Z,13.60
2023-02-06T01:46:43.489Z,12.65
2023-02-06T01:49:17.191Z,17.45
2023-02-06T01:51:44.756Z,13.13
2023-02-06T01:54:13.983Z,11.87
2023-02-06T01:56:45.557Z,13.52
2023-02-06T01:59:12.816Z,12.35
2023-02-06T02:01:41.145Z,12.18
2023-02-06T02:04:13.441Z,12.23
2023-02-06T02:06:41.223Z,13.40
2023-02-06T02:09:08.310Z,9.25
2023-02-06T02:11:38.873Z,9.20
2023-02-06T02:14:10.112Z,9.25
2023-02-06T02:16:49.347Z,7.12
2023-02-06T02:19:19.160Z,9.50
2023-02-06T02:22:00.233Z,8.20
2023-02-06T02:24:48.971Z,8.82
2023-02-06T02:27:34.307Z,6.75
2023-02-06T02:30:07.736Z,8.67
2023-02-06T02:32:56.625Z,9.40
2023-02-06T02:35:53.749Z,7.37
2023-02-06T02:38:37.415Z,6.57
2023-02-06T02:41:07.799Z,8.25
2023-02-06T02:43:51.199Z,7.00
2023-02-06T02:46:31.645Z,6.82
2023-02-06T02:49:04.928Z,7.07
2023-02-06T02:51:34.271Z,9.10
2023-02-06T02:54:01.235Z,9.80
2023-02-06T02:56:29.851Z,8.43
2023-02-06T02:59:05.232Z,10.85
2023-02-06T03:01:56.173Z,8.48
2023-02-06T03:04:30.201Z,10.45
2023-02-06T03:07:06.658Z,11.77
2023-02-06T03:09:45.969Z,14.25
2023-02-06T03:12:24.352Z,15.80
2023-02-06T03:15:05.522Z,10.15
2023-02-06T03:17:44.706Z,7.27
2023-02-06T03:20:13.837Z,9.82
2023-02-06T03:22:47.106Z,12.60
2023-02-06T03:25:19.106Z,11.90
2023-02-06T03:27:47.706Z,10.17
2023-02-06T03:30:16.349Z,10.50
2023-02-06T03:32:47.278Z,9.98
2023-02-06T03:35:21.995Z,9.00
2023-02-06T03:37:49.624Z,6.30
2023-02-06T03:40:18.523Z,12.00
2023-02-06T03:42:56.287Z,12.80
2023-02-06T03:45:29.115Z,7.22
2023-02-06T03:48:03.795Z,8.88
2023-02-06T03:50:32.365Z,8.68
2023-02-06T03:53:02.231Z,6.00
2023-02-06T03:55:29.218Z,7.95
2023-02-06T03:58:01.545Z,6.85
2023-02-06T04:00:31.229Z,9.13
2023-02-06T04:02:59.350Z,8.70
2023-02-06T04:05:27.323Z,8.57
2023-02-06T04:07:56.535Z,9.90
2023-02-06T04:10:26.115Z,8.88
2023-02-06T04:12:53.700Z,9.38
2023-02-06T04:15:20.854Z,13.10
2023-02-06T04:17:59.431Z,7.78
2023-02-06T04:20:27.220Z,8.37
2023-02-06T04:22:54.293Z,6.47
2023-02-06T04:25:21.242Z,6.50
2023-02-06T04:27:48.271Z,6.10
2023-02-06T04:30:15.762Z,8.50
2023-02-06T04:32:43.947Z,9.93
2023-02-06T04:35:11.631Z,7.90
2023-02-06T04:37:38.596Z,9.20
2023-02-06T04:40:06.655Z,9.70
2023-02-06T04:42:35.483Z,12.57
2023-02-06T04:45:02.317Z,9.70
2023-02-06T04:47:29.923Z,10.13
2023-02-06T04:49:56.819Z,8.48
2023-02-06T04:52:23.781Z,11.30
2023-02-06T04:54:50.688Z,11.30
2023-02-06T04:57:17.689Z,9.63
2023-02-06T04:59:45.152Z,10.23
2023-02-06T05:02:12.142Z,11.50
2023-02-06T05:04:39.282Z,16.27
2023-02-06T05:07:06.559Z,10.52
2023-02-06T05:09:33.690Z,13.05
2023-02-06T05:12:00.659Z,21.47
2023-02-06T05:14:27.628Z,13.05
2023-02-06T05:16:54.538Z,11.65
2023-02-06T05:19:21.943Z,10.63
2023-02-06T05:21:48.855Z,15.80
2023-02-06T05:24:15.722Z,8.52
2023-02-06T05:26:42.581Z,7.87
2023-02-06T05:29:10.009Z,9.10
2023-02-06T05:31:37.188Z,8.23
2023-02-06T05:34:04.283Z,6.97
2023-02-06T05:36:31.218Z,11.48
2023-02-06T05:38:58.176Z,9.30
2023-02-06T05:41:25.645Z,9.68
2023-02-06T05:43:52.471Z,17.73
2023-02-06T05:46:19.557Z,19.73
2023-02-06T05:48:46.598Z,16.40
2023-02-06T05:51:13.770Z,15.95
2023-02-06T05:53:40.816Z,10.07
2023-02-06T05:56:07.748Z,12.27
2023-02-06T05:58:34.722Z,15.07
2023-02-06T06:01:01.868Z,11.93
2023-02-06T06:03:28.839Z,10.35
2023-02-06T06:05:55.831Z,10.63
2023-02-06T06:08:22.870Z,12.73
2023-02-06T06:10:51.405Z,12.45
2023-02-06T06:13:18.932Z,16.80
2023-02-06T06:15:45.951Z,11.53
2023-02-06T06:18:13.097Z,22.67
2023-02-06T06:20:41.481Z,27.00
2023-02-06T06:23:08.777Z,15.57
2023-02-06T06:25:36.560Z,15.85
2023-02-06T06:28:04.357Z,18.90
2023-02-06T06:30:32.021Z,21.67
2023-02-06T06:32:59.423Z,18.30
2023-02-06T06:35:26.808Z,20.65
2023-02-06T06:38:03.184Z,14.48
2023-02-06T06:40:30.196Z,36.00
2023-02-06T06:42:57.118Z,21.37
2023-02-06T06:45:24.077Z,27.83
2023-02-06T06:47:51.003Z,30.75
2023-02-06T06:50:18.182Z,24.37
2023-02-06T06:52:45.108Z,14.07
2023-02-06T06:55:12.048Z,23.05
2023-02-06T06:57:38.969Z,19.85
2023-02-06T07:00:09.332Z,23.10
2023-02-06T07:02:37.053Z,17.77
2023-02-06T07:05:04.584Z,21.02
2023-02-06T07:07:31.869Z,19.70
2023-02-06T07:10:02.116Z,18.65
2023-02-06T07:12:29.216Z,21.50
2023-02-06T07:14:56.418Z,29.25
2023-02-06T07:17:23.446Z,28.80
2023-02-06T07:19:52.514Z,24.58
2023-02-06T07:22:20.308Z,24.08
2023-02-06T07:24:47.672Z,17.63
2023-02-06T07:27:14.861Z,14.13
2023-02-06T07:29:41.756Z,16.95
2023-02-06T07:32:08.756Z,14.60
2023-02-06T07:34:36.257Z,14.20
2023-02-06T07:37:04.815Z,8.97
2023-02-06T07:39:32.166Z,9.77
2023-02-06T07:41:59.216Z,9.55
2023-02-06T07:44:26.377Z,11.32
2023-02-06T07:46:53.257Z,11.45
2023-02-06T07:49:20.350Z,9.83
2023-02-06T07:51:47.914Z,6.75
2023-02-06T07:54:15.338Z,10.27
2023-02-06T07:56:42.965Z,8.88
2023-02-06T07:59:10.574Z,8.90
2023-02-06T08:01:37.581Z,7.33
2023-02-06T08:04:04.629Z,7.55
2023-02-06T08:06:31.595Z,7.12
2023-02-06T08:08:58.478Z,9.05
2023-02-06T08:11:27.820Z,7.40
2023-02-06T08:13:54.674Z,7.13
2023-02-06T08:16:23.131Z,7.90
2023-02-06T08:18:50.517Z,6.97
2023-02-06T08:21:21.175Z,7.55
2023-02-06T08:23:53.848Z,8.00
2023-02-06T08:26:22.000Z,6.53
2023-02-06T08:28:50.818Z,5.75
2023-02-06T08:31:23.820Z,6.75
2023-02-06T08:33:51.685Z,7.87
2023-02-06T08:36:21.954Z,6.53
2023-02-06T08:38:52.539Z,8.43
2023-02-06T08:41:24.637Z,7.55
2023-02-06T08:43:56.361Z,8.18
2023-02-06T08:46:25.351Z,8.00
2023-02-06T08:49:01.311Z,8.10
2023-02-06T08:51:28.529Z,7.07
2023-02-06T08:53:57.254Z,10.02
2023-02-06T08:56:24.717Z,7.72
2023-02-06T08:58:51.943Z,9.95
2023-02-06T09:01:19.176Z,8.05
2023-02-06T09:03:46.985Z,9.47
2023-02-06T09:06:15.108Z,9.38
2023-02-06T09:08:42.580Z,8.90
2023-02-06T09:11:17.841Z,8.15
2023-02-06T09:13:49.269Z,11.35
2023-02-06T09:16:18.540Z,7.43
2023-02-06T17:33:21.195Z,31.33
2023-02-06T17:35:49.186Z,28.83
2023-02-06T17:38:16.698Z,26.05
2023-02-06T17:40:45.001Z,28.98
2023-02-06T17:43:12.036Z,30.87
2023-02-06T17:45:41.201Z,39.22
2023-02-06T17:48:08.939Z,42.45
2023-02-06T17:50:38.280Z,49.50
2023-02-06T17:53:07.472Z,45.97
2023-02-06T17:55:35.509Z,41.10
2023-02-06T17:58:04.368Z,37.40
2023-02-06T18:00:33.256Z,46.75
2023-02-06T18:03:00.873Z,46.83
2023-02-06T18:05:28.174Z,39.50
2023-02-06T18:07:56.281Z,48.70
2023-02-06T18:10:26.400Z,42.30
2023-02-06T18:12:53.949Z,39.78
2023-02-06T18:15:21.812Z,45.63
2023-02-06T18:17:54.973Z,44.50
2023-02-06T18:20:23.327Z,79.50
2023-02-06T18:22:51.297Z,69.35
2023-02-06T18:25:19.095Z,68.82
2023-02-06T18:27:46.888Z,79.40
2023-02-06T18:30:17.378Z,153.80
2023-02-06T18:32:45.707Z,126.90
2023-02-06T18:35:15.441Z,113.28
2023-02-06T18:37:44.393Z,92.18
2023-02-06T18:40:12.849Z,99.57
2023-02-06T18:45:50.657Z,55.10
2023-02-06T18:48:19.369Z,58.97
2023-02-06T18:50:47.082Z,55.90
2023-02-06T18:53:16.428Z,51.88
2023-02-06T18:55:44.933Z,38.90
2023-02-06T18:58:13.075Z,34.73
2023-02-06T19:00:45.579Z,34.70
2023-02-06T19:03:14.041Z,38.17
2023-02-06T19:05:42.463Z,38.65
2023-02-06T19:08:11.273Z,36.65
2023-02-06T19:10:40.843Z,35.33
2023-02-06T19:13:09.024Z,44.85
2023-02-06T19:15:39.203Z,59.53
2023-02-06T19:18:08.318Z,52.13
2023-02-06T19:20:37.145Z,56.88
2023-02-06T19:23:06.692Z,59.17
2023-02-06T19:25:36.702Z,61.33
2023-02-06T19:28:05.036Z,46.40
2023-02-06T19:30:34.601Z,40.88
2023-02-06T19:33:02.217Z,53.35
2023-02-06T19:35:30.663Z,47.93
2023-02-06T19:38:02.424Z,48.75
2023-02-06T19:40:30.808Z,45.88
2023-02-06T19:43:00.127Z,44.72
2023-02-06T19:45:28.939Z,38.80
2023-02-06T19:47:57.832Z,42.57
2023-02-06T19:50:25.552Z,44.92
2023-02-06T19:52:54.690Z,44.88
2023-02-06T19:55:23.140Z,40.45
2023-02-06T19:57:51.685Z,42.60
2023-02-06T20:00:20.646Z,43.77
2023-02-06T20:02:49.282Z,45.08
2023-02-06T20:05:20.696Z,41.13
2023-02-06T20:07:48.794Z,42.30
2023-02-06T20:10:19.069Z,42.15
2023-02-06T20:12:49.518Z,35.97
2023-02-06T20:15:18.978Z,40.33
2023-02-06T20:17:53.032Z,38.35
2023-02-06T20:20:21.609Z,41.22
2023-02-06T20:22:53.276Z,36.42
2023-02-06T20:25:21.984Z,44.43
2023-02-06T20:27:50.694Z,44.35
2023-02-06T20:30:28.526Z,47.60
2023-02-06T20:32:59.084Z,45.67
2023-02-06T20:35:27.080Z,43.35
2023-02-06T20:37:55.579Z,48.63
2023-02-06T20:40:23.678Z,42.60
2023-02-06T20:42:51.958Z,51.03
2023-02-06T20:45:19.907Z,49.70
2023-02-06T20:47:47.651Z,49.38
2023-02-06T20:50:17.174Z,53.73
2023-02-06T20:52:47.978Z,46.28
2023-02-06T20:55:15.555Z,45.63
2023-02-06T20:57:43.385Z,40.00
2023-02-06T21:00:13.751Z,42.60
2023-02-06T21:02:41.092Z,42.90
2023-02-06T21:05:08.768Z,42.88
2023-02-06T21:07:38.219Z,44.42
2023-02-06T21:10:05.985Z,37.33
2023-02-06T21:12:33.544Z,44.47
2023-02-06T21:15:03.518Z,45.60
2023-02-06T21:17:30.523Z,49.47
2023-02-06T21:19:59.959Z,44.70
2023-02-06T21:22:27.253Z,48.92
2023-02-06T21:24:54.689Z,49.20
2023-02-06T21:27:21.669Z,44.53
2023-02-06T21:29:48.620Z,41.45
2023-02-06T21:32:15.763Z,43.72
2023-02-06T21:34:42.944Z,51.15
2023-02-06T21:37:09.963Z,53.00
2023-02-06T21:39:38.846Z,49.50
2023-02-06T21:42:06.698Z,51.05
2023-02-06T21:44:34.222Z,52.55
2023-02-06T21:47:01.091Z,53.08
2023-02-06T21:49:28.095Z,49.60
2023-02-06T21:51:58.566Z,46.77
2023-02-06T21:54:25.897Z,42.15
2023-02-06T21:56:52.941Z,46.13
2023-02-06T21:59:19.813Z,52.15
2023-02-06T22:01:46.742Z,53.33
2023-02-06T22:04:13.646Z,46.43
2023-02-06T22:06:40.971Z,47.28
2023-02-06T22:09:15.164Z,45.20
2023-02-06T22:11:42.608Z,46.58
2023-02-06T22:14:13.431Z,42.15
2023-02-06T22:16:40.905Z,40.37
2023-02-06T22:19:08.158Z,41.60
2023-02-06T22:21:35.982Z,47.50
2023-02-06T22:24:06.282Z,40.28
2023-02-06T22:26:36.903Z,37.75
2023-02-06T22:29:05.823Z,34.03
2023-02-06T22:31:35.172Z,30.80
2023-02-06T22:34:02.989Z,32.50
2023-02-06T22:36:32.130Z,32.72
2023-02-06T22:39:10.065Z,36.25
2023-02-06T22:41:39.502Z,30.67
2023-02-06T22:44:06.630Z,48.78
2023-02-06T22:46:36.493Z,47.08
2023-02-06T22:49:06.144Z,49.67
2023-02-06T22:51:33.477Z,42.45
2023-02-06T22:54:00.771Z,36.50
2023-02-06T22:56:36.151Z,35.53
2023-02-06T22:59:12.698Z,33.50
2023-02-06T23:01:45.588Z,32.28
2023-02-06T23:04:23.295Z,34.90
2023-02-06T23:06:51.197Z,36.80
2023-02-06T23:09:27.177Z,29.77
2023-02-06T23:11:54.991Z,29.63
2023-02-06T23:14:21.930Z,38.00
2023-02-06T23:16:49.129Z,28.87
2023-02-06T23:19:17.040Z,31.17
2023-02-06T23:21:46.354Z,32.78
2023-02-06T23:24:14.292Z,30.45
2023-02-06T23:26:43.725Z,30.60
2023-02-06T23:29:15.894Z,27.98
2023-02-06T23:31:44.578Z,31.10
2023-02-06T23:34:12.589Z,33.55
2023-02-06T23:36:39.760Z,31.27
2023-02-06T23:39:06.778Z,33.45
2023-02-06T23:41:34.497Z,29.15
2023-02-06T23:44:04.724Z,30.17
2023-02-06T23:46:33.687Z,31.53
2023-02-06T23:49:00.674Z,30.30
2023-02-06T23:51:27.775Z,29.08
2023-02-06T23:53:54.809Z,29.80
2023-02-06T23:56:25.307Z,33.67
2023-02-06T23:58:53.827Z,28.98
